This is the latest recevied weather packets stored in our database for station/object EA4BCR. If no packets are shown the sender has not sent any weather packets the latest 10 day(s).
| Time | Temp. | Humidity | Pressure | Rain* | Wind** | Luminosity | Snow |
|---|---|---|---|---|---|---|---|
| 1787623812 | 18.33° C | 72% | 1015.5 hPa | - | - | - | - |
| 1787623212 | 18.89° C | 68% | 1015.3 hPa | - | - | - | - |
| 1787622612 | 19.44° C | 70% | 1015.1 hPa | - | - | - | - |
| 1787622012 | 19.44° C | 65% | 1015 hPa | - | - | - | - |
| 1787621412 | 20° C | 66% | 1014.9 hPa | - | - | - | - |
| 1787620812 | 20° C | 65% | 1015 hPa | - | - | - | - |
| 1787620212 | 20° C | 65% | 1014.9 hPa | - | - | - | - |
| 1787619612 | 20.56° C | 65% | 1015 hPa | - | - | - | - |
| 1787619012 | 19.44° C | 70% | 1015.3 hPa | - | - | - | - |
| 1787618412 | 20.56° C | 63% | 1015 hPa | - | - | - | - |
| 1787617812 | 20.56° C | 64% | 1014.9 hPa | - | - | - | - |
| 1787617212 | 21.11° C | 62% | 1014.9 hPa | - | - | - | - |
| 1787616612 | 21.11° C | 64% | 1014.9 hPa | - | - | - | - |
| 1787616012 | 21.11° C | 61% | 1014.5 hPa | - | - | - | - |
| 1787615412 | 20.56° C | 63% | 1014.7 hPa | - | - | - | - |
| 1787614812 | 21.11° C | 62% | 1014.6 hPa | - | - | - | - |
| 1787614212 | 21.11° C | 60% | 1014.5 hPa | - | - | - | - |
| 1787613612 | 21.11° C | 61% | 1014.3 hPa | - | - | - | - |
| 1787613012 | 21.67° C | 58% | 1014.2 hPa | - | - | - | - |
| 1787612412 | 21.67° C | 60% | 1014.4 hPa | - | - | - | - |
| 1787611812 | 21.67° C | 58% | 1014.1 hPa | - | - | - | - |
| 1787611212 | 21.67° C | 58% | 1014 hPa | - | - | - | - |
| 1787610612 | 21.11° C | 58% | 1014.1 hPa | - | - | - | - |
| 1787610012 | 22.22° C | 56% | 1013.7 hPa | - | - | - | - |
| 1787609412 | 21.67° C | 56% | 1013.9 hPa | - | - | - | - |
* Rain since midnight (hover to see other rain measurements)
** Current wind speed in m/s (hover to see current wind gust speed)